sensor_id;sensor_type;location;lat;lon;timestamp;P1;durP1;ratioP1;P2;durP2;ratioP2
83119;SDS011;73001;51.784;4.660;2024-02-21T00:01:38;4.63;;;4.63;;
83119;SDS011;73001;51.784;4.660;2024-02-21T00:04:04;4.66;;;4.66;;
83119;SDS011;73001;51.784;4.660;2024-02-21T00:06:29;4.69;;;4.68;;
83119;SDS011;73001;51.784;4.660;2024-02-21T00:08:55;4.65;;;4.65;;
83119;SDS011;73001;51.784;4.660;2024-02-21T00:11:20;4.73;;;4.70;;
83119;SDS011;73001;51.784;4.660;2024-02-21T00:13:46;4.95;;;4.83;;
83119;SDS011;73001;51.784;4.660;2024-02-21T00:16:11;4.72;;;4.71;;
83119;SDS011;73001;51.784;4.660;2024-02-21T00:18:37;4.49;;;4.47;;
83119;SDS011;73001;51.784;4.660;2024-02-21T00:21:02;4.45;;;4.43;;
83119;SDS011;73001;51.784;4.660;2024-02-21T00:23:28;4.47;;;4.47;;
83119;SDS011;73001;51.784;4.660;2024-02-21T00:25:53;4.59;;;4.58;;
83119;SDS011;73001;51.784;4.660;2024-02-21T00:28:19;4.27;;;4.18;;
83119;SDS011;73001;51.784;4.660;2024-02-21T00:30:45;4.21;;;4.07;;
83119;SDS011;73001;51.784;4.660;2024-02-21T00:33:13;4.52;;;4.37;;
83119;SDS011;73001;51.784;4.660;2024-02-21T00:35:39;4.60;;;4.43;;
83119;SDS011;73001;51.784;4.660;2024-02-21T00:38:04;4.60;;;4.38;;
83119;SDS011;73001;51.784;4.660;2024-02-21T00:40:30;4.95;;;4.65;;
83119;SDS011;73001;51.784;4.660;2024-02-21T00:42:55;4.84;;;4.44;;
83119;SDS011;73001;51.784;4.660;2024-02-21T00:45:21;4.54;;;4.23;;
83119;SDS011;73001;51.784;4.660;2024-02-21T00:47:46;4.54;;;4.18;;
83119;SDS011;73001;51.784;4.660;2024-02-21T00:50:12;4.34;;;4.03;;
83119;SDS011;73001;51.784;4.660;2024-02-21T00:52:37;4.25;;;4.01;;
83119;SDS011;73001;51.784;4.660;2024-02-21T00:55:03;4.31;;;4.01;;
83119;SDS011;73001;51.784;4.660;2024-02-21T00:57:29;4.20;;;3.90;;
83119;SDS011;73001;51.784;4.660;2024-02-21T00:59:55;4.47;;;4.14;;
83119;SDS011;73001;51.784;4.660;2024-02-21T01:02:20;4.12;;;3.88;;
83119;SDS011;73001;51.784;4.660;2024-02-21T01:04:46;4.34;;;4.13;;
83119;SDS011;73001;51.784;4.660;2024-02-21T01:07:11;4.21;;;3.98;;
83119;SDS011;73001;51.784;4.660;2024-02-21T01:09:37;4.14;;;3.94;;
83119;SDS011;73001;51.784;4.660;2024-02-21T01:12:02;4.01;;;3.84;;
83119;SDS011;73001;51.784;4.660;2024-02-21T01:14:28;4.25;;;4.02;;
83119;SDS011;73001;51.784;4.660;2024-02-21T01:16:53;4.30;;;4.05;;
83119;SDS011;73001;51.784;4.660;2024-02-21T01:19:19;4.41;;;4.15;;
83119;SDS011;73001;51.784;4.660;2024-02-21T01:21:44;4.36;;;4.10;;
83119;SDS011;73001;51.784;4.660;2024-02-21T01:24:09;4.27;;;4.08;;
83119;SDS011;73001;51.784;4.660;2024-02-21T01:26:35;4.64;;;4.40;;
83119;SDS011;73001;51.784;4.660;2024-02-21T01:29:00;4.91;;;4.69;;
83119;SDS011;73001;51.784;4.660;2024-02-21T01:31:26;4.35;;;4.16;;
83119;SDS011;73001;51.784;4.660;2024-02-21T01:33:51;4.61;;;4.39;;
83119;SDS011;73001;51.784;4.660;2024-02-21T01:36:17;4.41;;;4.25;;
83119;SDS011;73001;51.784;4.660;2024-02-21T01:38:42;4.22;;;4.14;;
83119;SDS011;73001;51.784;4.660;2024-02-21T01:41:07;4.41;;;4.30;;
83119;SDS011;73001;51.784;4.660;2024-02-21T01:43:33;4.33;;;4.19;;
83119;SDS011;73001;51.784;4.660;2024-02-21T01:45:58;4.40;;;4.27;;
83119;SDS011;73001;51.784;4.660;2024-02-21T01:48:24;4.26;;;4.10;;
83119;SDS011;73001;51.784;4.660;2024-02-21T01:50:50;4.16;;;4.00;;
83119;SDS011;73001;51.784;4.660;2024-02-21T01:53:21;4.54;;;4.39;;
83119;SDS011;73001;51.784;4.660;2024-02-21T01:55:50;4.54;;;4.43;;
83119;SDS011;73001;51.784;4.660;2024-02-21T01:58:16;4.47;;;4.36;;
83119;SDS011;73001;51.784;4.660;2024-02-21T02:00:44;4.67;;;4.59;;
83119;SDS011;73001;51.784;4.660;2024-02-21T02:03:12;4.71;;;4.64;;
83119;SDS011;73001;51.784;4.660;2024-02-21T02:05:47;5.14;;;5.04;;
83119;SDS011;73001;51.784;4.660;2024-02-21T02:08:14;4.79;;;4.75;;
83119;SDS011;73001;51.784;4.660;2024-02-21T02:10:41;4.80;;;4.80;;
83119;SDS011;73001;51.784;4.660;2024-02-21T02:13:07;4.81;;;4.80;;
83119;SDS011;73001;51.784;4.660;2024-02-21T02:15:42;4.82;;;4.81;;
83119;SDS011;73001;51.784;4.660;2024-02-21T02:18:10;4.93;;;4.87;;
83119;SDS011;73001;51.784;4.660;2024-02-21T02:20:36;4.80;;;4.72;;
83119;SDS011;73001;51.784;4.660;2024-02-21T02:23:07;5.06;;;4.93;;
83119;SDS011;73001;51.784;4.660;2024-02-21T02:25:38;5.14;;;5.05;;
83119;SDS011;73001;51.784;4.660;2024-02-21T02:28:07;5.08;;;5.03;;
83119;SDS011;73001;51.784;4.660;2024-02-21T02:30:36;5.04;;;4.95;;
83119;SDS011;73001;51.784;4.660;2024-02-21T02:33:02;4.66;;;4.60;;
83119;SDS011;73001;51.784;4.660;2024-02-21T02:35:28;4.82;;;4.82;;
83119;SDS011;73001;51.784;4.660;2024-02-21T02:37:54;4.72;;;4.69;;
83119;SDS011;73001;51.784;4.660;2024-02-21T02:40:19;4.74;;;4.70;;
83119;SDS011;73001;51.784;4.660;2024-02-21T02:42:45;5.04;;;4.96;;
83119;SDS011;73001;51.784;4.660;2024-02-21T02:45:11;4.81;;;4.75;;
83119;SDS011;73001;51.784;4.660;2024-02-21T02:47:36;4.87;;;4.85;;
83119;SDS011;73001;51.784;4.660;2024-02-21T02:50:02;4.50;;;4.50;;
83119;SDS011;73001;51.784;4.660;2024-02-21T02:52:27;4.70;;;4.69;;
83119;SDS011;73001;51.784;4.660;2024-02-21T02:54:53;4.64;;;4.62;;
83119;SDS011;73001;51.784;4.660;2024-02-21T02:57:21;4.98;;;4.96;;
83119;SDS011;73001;51.784;4.660;2024-02-21T02:59:50;5.09;;;5.05;;
83119;SDS011;73001;51.784;4.660;2024-02-21T03:02:16;5.18;;;5.11;;
83119;SDS011;73001;51.784;4.660;2024-02-21T03:04:43;4.93;;;4.91;;
83119;SDS011;73001;51.784;4.660;2024-02-21T03:07:09;5.35;;;5.33;;
83119;SDS011;73001;51.784;4.660;2024-02-21T03:09:36;5.39;;;5.35;;
83119;SDS011;73001;51.784;4.660;2024-02-21T03:12:05;4.94;;;4.90;;
83119;SDS011;73001;51.784;4.660;2024-02-21T03:14:31;5.19;;;5.14;;
83119;SDS011;73001;51.784;4.660;2024-02-21T03:16:58;5.55;;;5.51;;
83119;SDS011;73001;51.784;4.660;2024-02-21T03:19:24;5.58;;;5.58;;
83119;SDS011;73001;51.784;4.660;2024-02-21T03:21:50;5.38;;;5.37;;
83119;SDS011;73001;51.784;4.660;2024-02-21T03:24:19;5.75;;;5.71;;
83119;SDS011;73001;51.784;4.660;2024-02-21T03:26:45;5.97;;;5.92;;
83119;SDS011;73001;51.784;4.660;2024-02-21T03:29:15;5.68;;;5.65;;
83119;SDS011;73001;51.784;4.660;2024-02-21T03:31:41;5.85;;;5.84;;
83119;SDS011;73001;51.784;4.660;2024-02-21T03:34:07;5.98;;;5.98;;
83119;SDS011;73001;51.784;4.660;2024-02-21T03:36:35;6.03;;;6.03;;
83119;SDS011;73001;51.784;4.660;2024-02-21T03:39:01;5.54;;;5.54;;
83119;SDS011;73001;51.784;4.660;2024-02-21T03:41:26;5.71;;;5.71;;
83119;SDS011;73001;51.784;4.660;2024-02-21T03:43:52;5.70;;;5.70;;
83119;SDS011;73001;51.784;4.660;2024-02-21T03:46:17;6.13;;;6.13;;
83119;SDS011;73001;51.784;4.660;2024-02-21T03:48:42;6.02;;;6.01;;
83119;SDS011;73001;51.784;4.660;2024-02-21T03:51:08;5.60;;;5.59;;
83119;SDS011;73001;51.784;4.660;2024-02-21T03:53:33;5.63;;;5.62;;
83119;SDS011;73001;51.784;4.660;2024-02-21T03:56:02;5.90;;;5.89;;
83119;SDS011;73001;51.784;4.660;2024-02-21T03:58:29;5.92;;;5.90;;
83119;SDS011;73001;51.784;4.660;2024-02-21T04:00:59;5.83;;;5.82;;
83119;SDS011;73001;51.784;4.660;2024-02-21T04:03:26;5.87;;;5.87;;
83119;SDS011;73001;51.784;4.660;2024-02-21T04:05:52;5.99;;;5.99;;
83119;SDS011;73001;51.784;4.660;2024-02-21T04:08:17;5.64;;;5.63;;
83119;SDS011;73001;51.784;4.660;2024-02-21T04:10:42;5.70;;;5.69;;
83119;SDS011;73001;51.784;4.660;2024-02-21T04:13:09;6.00;;;5.98;;
83119;SDS011;73001;51.784;4.660;2024-02-21T04:15:34;5.74;;;5.74;;
83119;SDS011;73001;51.784;4.660;2024-02-21T04:18:00;5.70;;;5.70;;
83119;SDS011;73001;51.784;4.660;2024-02-21T04:20:26;6.39;;;6.36;;
83119;SDS011;73001;51.784;4.660;2024-02-21T04:22:51;5.71;;;5.70;;
83119;SDS011;73001;51.784;4.660;2024-02-21T04:25:17;6.50;;;6.49;;
83119;SDS011;73001;51.784;4.660;2024-02-21T04:27:42;6.59;;;6.58;;
83119;SDS011;73001;51.784;4.660;2024-02-21T04:30:08;6.79;;;6.76;;
83119;SDS011;73001;51.784;4.660;2024-02-21T04:32:34;7.01;;;6.98;;
83119;SDS011;73001;51.784;4.660;2024-02-21T04:35:00;7.13;;;7.08;;
83119;SDS011;73001;51.784;4.660;2024-02-21T04:37:26;7.37;;;7.36;;
83119;SDS011;73001;51.784;4.660;2024-02-21T04:39:51;7.76;;;7.73;;
83119;SDS011;73001;51.784;4.660;2024-02-21T04:42:17;7.79;;;7.77;;
83119;SDS011;73001;51.784;4.660;2024-02-21T04:44:42;8.25;;;8.22;;
83119;SDS011;73001;51.784;4.660;2024-02-21T04:47:08;7.87;;;7.86;;
83119;SDS011;73001;51.784;4.660;2024-02-21T04:49:34;7.96;;;7.94;;
83119;SDS011;73001;51.784;4.660;2024-02-21T04:52:00;8.02;;;8.02;;
83119;SDS011;73001;51.784;4.660;2024-02-21T04:54:26;8.01;;;8.01;;
83119;SDS011;73001;51.784;4.660;2024-02-21T04:56:51;8.40;;;8.40;;
83119;SDS011;73001;51.784;4.660;2024-02-21T04:59:17;9.23;;;9.22;;
83119;SDS011;73001;51.784;4.660;2024-02-21T05:01:42;9.43;;;9.38;;
83119;SDS011;73001;51.784;4.660;2024-02-21T05:04:08;9.62;;;9.61;;
83119;SDS011;73001;51.784;4.660;2024-02-21T05:06:37;8.64;;;8.64;;
83119;SDS011;73001;51.784;4.660;2024-02-21T05:09:04;9.18;;;9.15;;
83119;SDS011;73001;51.784;4.660;2024-02-21T05:11:30;9.15;;;9.12;;
83119;SDS011;73001;51.784;4.660;2024-02-21T05:13:55;9.20;;;9.19;;
83119;SDS011;73001;51.784;4.660;2024-02-21T05:16:21;9.24;;;9.20;;
83119;SDS011;73001;51.784;4.660;2024-02-21T05:18:46;9.34;;;9.29;;
83119;SDS011;73001;51.784;4.660;2024-02-21T05:21:12;9.35;;;9.34;;
83119;SDS011;73001;51.784;4.660;2024-02-21T05:23:38;9.98;;;9.88;;
83119;SDS011;73001;51.784;4.660;2024-02-21T05:26:05;9.31;;;9.18;;
83119;SDS011;73001;51.784;4.660;2024-02-21T05:28:31;9.94;;;9.87;;
83119;SDS011;73001;51.784;4.660;2024-02-21T05:30:56;9.50;;;9.48;;
83119;SDS011;73001;51.784;4.660;2024-02-21T05:33:22;10.46;;;10.41;;
83119;SDS011;73001;51.784;4.660;2024-02-21T05:35:47;10.34;;;10.29;;
83119;SDS011;73001;51.784;4.660;2024-02-21T05:38:14;10.46;;;10.40;;
83119;SDS011;73001;51.784;4.660;2024-02-21T05:40:39;10.69;;;10.56;;
83119;SDS011;73001;51.784;4.660;2024-02-21T05:43:06;10.96;;;10.71;;
83119;SDS011;73001;51.784;4.660;2024-02-21T05:45:35;11.16;;;11.03;;
83119;SDS011;73001;51.784;4.660;2024-02-21T05:48:01;11.35;;;11.29;;
83119;SDS011;73001;51.784;4.660;2024-02-21T05:50:27;12.22;;;12.12;;
83119;SDS011;73001;51.784;4.660;2024-02-21T05:52:56;11.15;;;11.04;;
83119;SDS011;73001;51.784;4.660;2024-02-21T05:55:22;11.42;;;11.33;;
83119;SDS011;73001;51.784;4.660;2024-02-21T05:57:48;11.99;;;11.92;;
83119;SDS011;73001;51.784;4.660;2024-02-21T06:00:14;12.29;;;12.20;;
83119;SDS011;73001;51.784;4.660;2024-02-21T06:02:40;12.20;;;11.99;;
83119;SDS011;73001;51.784;4.660;2024-02-21T06:05:06;11.99;;;11.84;;
83119;SDS011;73001;51.784;4.660;2024-02-21T06:07:33;11.68;;;11.56;;
83119;SDS011;73001;51.784;4.660;2024-02-21T06:10:02;11.78;;;11.63;;
83119;SDS011;73001;51.784;4.660;2024-02-21T06:12:28;11.76;;;11.67;;
83119;SDS011;73001;51.784;4.660;2024-02-21T06:14:53;12.15;;;12.00;;
83119;SDS011;73001;51.784;4.660;2024-02-21T06:17:18;11.79;;;11.71;;
83119;SDS011;73001;51.784;4.660;2024-02-21T06:19:44;12.39;;;12.24;;
83119;SDS011;73001;51.784;4.660;2024-02-21T06:22:10;13.01;;;12.83;;
83119;SDS011;73001;51.784;4.660;2024-02-21T06:24:36;12.40;;;12.29;;
83119;SDS011;73001;51.784;4.660;2024-02-21T06:27:05;12.57;;;12.46;;
83119;SDS011;73001;51.784;4.660;2024-02-21T06:29:31;11.85;;;11.79;;
83119;SDS011;73001;51.784;4.660;2024-02-21T06:31:57;12.22;;;12.14;;
83119;SDS011;73001;51.784;4.660;2024-02-21T06:34:22;12.86;;;12.80;;
83119;SDS011;73001;51.784;4.660;2024-02-21T06:36:49;12.86;;;12.67;;
83119;SDS011;73001;51.784;4.660;2024-02-21T06:39:15;13.05;;;12.93;;
83119;SDS011;73001;51.784;4.660;2024-02-21T06:41:40;13.44;;;13.41;;
83119;SDS011;73001;51.784;4.660;2024-02-21T06:44:06;13.74;;;13.70;;
83119;SDS011;73001;51.784;4.660;2024-02-21T06:46:31;13.55;;;13.48;;
83119;SDS011;73001;51.784;4.660;2024-02-21T06:49:00;13.14;;;13.08;;
83119;SDS011;73001;51.784;4.660;2024-02-21T06:51:26;13.15;;;13.02;;
83119;SDS011;73001;51.784;4.660;2024-02-21T06:53:53;13.99;;;13.86;;
83119;SDS011;73001;51.784;4.660;2024-02-21T06:56:18;13.91;;;13.82;;
83119;SDS011;73001;51.784;4.660;2024-02-21T06:58:44;14.56;;;14.50;;
83119;SDS011;73001;51.784;4.660;2024-02-21T07:01:10;15.07;;;14.98;;
83119;SDS011;73001;51.784;4.660;2024-02-21T07:03:37;15.12;;;15.05;;
83119;SDS011;73001;51.784;4.660;2024-02-21T07:06:03;15.49;;;15.43;;
83119;SDS011;73001;51.784;4.660;2024-02-21T07:08:29;15.30;;;15.19;;
83119;SDS011;73001;51.784;4.660;2024-02-21T07:10:54;15.58;;;15.45;;
83119;SDS011;73001;51.784;4.660;2024-02-21T07:13:20;15.81;;;15.67;;
83119;SDS011;73001;51.784;4.660;2024-02-21T07:15:46;16.32;;;16.24;;
83119;SDS011;73001;51.784;4.660;2024-02-21T07:18:13;15.12;;;15.05;;
83119;SDS011;73001;51.784;4.660;2024-02-21T07:20:38;14.86;;;14.84;;
83119;SDS011;73001;51.784;4.660;2024-02-21T07:23:03;15.28;;;15.20;;
83119;SDS011;73001;51.784;4.660;2024-02-21T07:25:29;15.64;;;15.56;;
83119;SDS011;73001;51.784;4.660;2024-02-21T07:27:54;15.41;;;15.37;;
83119;SDS011;73001;51.784;4.660;2024-02-21T07:30:20;14.50;;;14.45;;
83119;SDS011;73001;51.784;4.660;2024-02-21T07:32:48;14.63;;;14.56;;
83119;SDS011;73001;51.784;4.660;2024-02-21T07:35:15;14.82;;;14.72;;
83119;SDS011;73001;51.784;4.660;2024-02-21T07:37:41;14.36;;;14.26;;
83119;SDS011;73001;51.784;4.660;2024-02-21T07:40:06;14.90;;;14.67;;
83119;SDS011;73001;51.784;4.660;2024-02-21T07:42:37;13.94;;;13.81;;
83119;SDS011;73001;51.784;4.660;2024-02-21T07:45:02;14.21;;;14.09;;
83119;SDS011;73001;51.784;4.660;2024-02-21T07:47:28;14.41;;;14.17;;
83119;SDS011;73001;51.784;4.660;2024-02-21T07:49:54;14.92;;;14.74;;
83119;SDS011;73001;51.784;4.660;2024-02-21T07:52:19;14.40;;;14.24;;
83119;SDS011;73001;51.784;4.660;2024-02-21T07:54:45;14.32;;;14.25;;
83119;SDS011;73001;51.784;4.660;2024-02-21T07:57:10;14.56;;;14.53;;
83119;SDS011;73001;51.784;4.660;2024-02-21T07:59:35;14.27;;;14.21;;
83119;SDS011;73001;51.784;4.660;2024-02-21T08:02:01;14.52;;;14.43;;
83119;SDS011;73001;51.784;4.660;2024-02-21T08:04:27;14.21;;;14.14;;
83119;SDS011;73001;51.784;4.660;2024-02-21T08:06:53;14.13;;;14.11;;
83119;SDS011;73001;51.784;4.660;2024-02-21T08:09:21;13.85;;;13.78;;
83119;SDS011;73001;51.784;4.660;2024-02-21T08:11:49;14.58;;;14.40;;
83119;SDS011;73001;51.784;4.660;2024-02-21T08:14:15;14.49;;;14.32;;
83119;SDS011;73001;51.784;4.660;2024-02-21T08:16:44;14.68;;;14.61;;
83119;SDS011;73001;51.784;4.660;2024-02-21T08:19:10;15.11;;;15.02;;
83119;SDS011;73001;51.784;4.660;2024-02-21T08:21:36;14.44;;;14.38;;
83119;SDS011;73001;51.784;4.660;2024-02-21T08:24:01;14.91;;;14.88;;
83119;SDS011;73001;51.784;4.660;2024-02-21T08:26:27;15.56;;;15.42;;
83119;SDS011;73001;51.784;4.660;2024-02-21T08:28:55;15.60;;;15.53;;
83119;SDS011;73001;51.784;4.660;2024-02-21T08:31:24;15.14;;;15.06;;
83119;SDS011;73001;51.784;4.660;2024-02-21T08:33:56;15.84;;;15.69;;
83119;SDS011;73001;51.784;4.660;2024-02-21T08:36:31;15.80;;;15.63;;
83119;SDS011;73001;51.784;4.660;2024-02-21T08:38:58;15.66;;;15.54;;
83119;SDS011;73001;51.784;4.660;2024-02-21T08:41:23;15.45;;;15.35;;
83119;SDS011;73001;51.784;4.660;2024-02-21T08:43:50;15.25;;;15.13;;
83119;SDS011;73001;51.784;4.660;2024-02-21T08:46:17;14.50;;;14.42;;
83119;SDS011;73001;51.784;4.660;2024-02-21T08:48:43;13.98;;;13.93;;
83119;SDS011;73001;51.784;4.660;2024-02-21T08:51:08;14.40;;;14.30;;
83119;SDS011;73001;51.784;4.660;2024-02-21T08:53:34;13.66;;;13.59;;
83119;SDS011;73001;51.784;4.660;2024-02-21T08:55:59;14.59;;;14.46;;
83119;SDS011;73001;51.784;4.660;2024-02-21T08:58:25;13.73;;;13.58;;
83119;SDS011;73001;51.784;4.660;2024-02-21T09:00:51;14.13;;;14.08;;
83119;SDS011;73001;51.784;4.660;2024-02-21T09:03:17;13.54;;;13.38;;
83119;SDS011;73001;51.784;4.660;2024-02-21T09:05:45;13.23;;;13.14;;
83119;SDS011;73001;51.784;4.660;2024-02-21T09:08:12;13.42;;;13.36;;
83119;SDS011;73001;51.784;4.660;2024-02-21T09:10:39;13.17;;;13.12;;
83119;SDS011;73001;51.784;4.660;2024-02-21T09:13:05;14.00;;;13.88;;
83119;SDS011;73001;51.784;4.660;2024-02-21T09:15:32;13.03;;;13.00;;
83119;SDS011;73001;51.784;4.660;2024-02-21T09:17:57;13.64;;;13.49;;
83119;SDS011;73001;51.784;4.660;2024-02-21T09:20:22;12.77;;;12.70;;
83119;SDS011;73001;51.784;4.660;2024-02-21T09:22:48;12.94;;;12.89;;
83119;SDS011;73001;51.784;4.660;2024-02-21T09:25:13;12.57;;;12.51;;
83119;SDS011;73001;51.784;4.660;2024-02-21T09:27:39;12.39;;;12.31;;
83119;SDS011;73001;51.784;4.660;2024-02-21T09:30:05;12.89;;;12.77;;
83119;SDS011;73001;51.784;4.660;2024-02-21T09:32:31;12.21;;;12.07;;
83119;SDS011;73001;51.784;4.660;2024-02-21T09:34:58;12.31;;;12.21;;
83119;SDS011;73001;51.784;4.660;2024-02-21T09:37:23;12.02;;;12.01;;
83119;SDS011;73001;51.784;4.660;2024-02-21T09:39:49;11.76;;;11.73;;
83119;SDS011;73001;51.784;4.660;2024-02-21T09:42:16;11.60;;;11.53;;
83119;SDS011;73001;51.784;4.660;2024-02-21T09:44:45;11.58;;;11.50;;
83119;SDS011;73001;51.784;4.660;2024-02-21T09:47:18;12.40;;;12.36;;
83119;SDS011;73001;51.784;4.660;2024-02-21T09:49:49;11.91;;;11.84;;
83119;SDS011;73001;51.784;4.660;2024-02-21T09:52:16;11.78;;;11.78;;
83119;SDS011;73001;51.784;4.660;2024-02-21T09:54:43;11.84;;;11.84;;
83119;SDS011;73001;51.784;4.660;2024-02-21T09:57:10;11.79;;;11.78;;
83119;SDS011;73001;51.784;4.660;2024-02-21T09:59:36;11.94;;;11.94;;
83119;SDS011;73001;51.784;4.660;2024-02-21T10:02:03;12.03;;;12.00;;
83119;SDS011;73001;51.784;4.660;2024-02-21T10:04:29;11.73;;;11.64;;
83119;SDS011;73001;51.784;4.660;2024-02-21T10:06:56;12.84;;;12.84;;
83119;SDS011;73001;51.784;4.660;2024-02-21T10:09:25;12.33;;;12.33;;
83119;SDS011;73001;51.784;4.660;2024-02-21T10:12:16;12.34;;;12.34;;
83119;SDS011;73001;51.784;4.660;2024-02-21T10:14:44;11.69;;;11.69;;
83119;SDS011;73001;51.784;4.660;2024-02-21T10:17:14;11.74;;;11.74;;
83119;SDS011;73001;51.784;4.660;2024-02-21T10:19:43;11.36;;;11.36;;
83119;SDS011;73001;51.784;4.660;2024-02-21T10:22:08;11.21;;;11.18;;
83119;SDS011;73001;51.784;4.660;2024-02-21T10:24:35;10.66;;;10.66;;
83119;SDS011;73001;51.784;4.660;2024-02-21T10:27:04;11.60;;;11.60;;
83119;SDS011;73001;51.784;4.660;2024-02-21T10:29:33;11.49;;;11.48;;
83119;SDS011;73001;51.784;4.660;2024-02-21T10:32:11;12.37;;;12.37;;
83119;SDS011;73001;51.784;4.660;2024-02-21T10:34:39;12.86;;;12.86;;
83119;SDS011;73001;51.784;4.660;2024-02-21T10:37:06;12.77;;;12.76;;
83119;SDS011;73001;51.784;4.660;2024-02-21T10:39:35;13.60;;;13.58;;
83119;SDS011;73001;51.784;4.660;2024-02-21T10:42:03;14.46;;;14.39;;
83119;SDS011;73001;51.784;4.660;2024-02-21T10:44:29;15.28;;;15.27;;
83119;SDS011;73001;51.784;4.660;2024-02-21T10:46:56;15.43;;;15.43;;
83119;SDS011;73001;51.784;4.660;2024-02-21T10:49:23;14.74;;;14.73;;
83119;SDS011;73001;51.784;4.660;2024-02-21T10:51:50;14.81;;;14.70;;
83119;SDS011;73001;51.784;4.660;2024-02-21T10:57:08;14.75;;;14.74;;
83119;SDS011;73001;51.784;4.660;2024-02-21T10:59:37;13.82;;;13.78;;
83119;SDS011;73001;51.784;4.660;2024-02-21T11:02:04;14.25;;;14.25;;
83119;SDS011;73001;51.784;4.660;2024-02-21T11:04:29;15.10;;;15.10;;
83119;SDS011;73001;51.784;4.660;2024-02-21T11:07:01;15.12;;;15.12;;
83119;SDS011;73001;51.784;4.660;2024-02-21T11:09:30;14.88;;;14.88;;
83119;SDS011;73001;51.784;4.660;2024-02-21T11:11:57;15.35;;;15.35;;
83119;SDS011;73001;51.784;4.660;2024-02-21T11:14:26;14.82;;;14.82;;
83119;SDS011;73001;51.784;4.660;2024-02-21T11:16:53;14.18;;;14.18;;
83119;SDS011;73001;51.784;4.660;2024-02-21T11:19:27;14.49;;;14.49;;
83119;SDS011;73001;51.784;4.660;2024-02-21T11:21:54;14.39;;;14.39;;
83119;SDS011;73001;51.784;4.660;2024-02-21T11:24:28;13.98;;;13.98;;
83119;SDS011;73001;51.784;4.660;2024-02-21T11:26:56;14.52;;;14.52;;
83119;SDS011;73001;51.784;4.660;2024-02-21T11:29:32;13.69;;;13.69;;
83119;SDS011;73001;51.784;4.660;2024-02-21T11:31:57;13.17;;;13.17;;
83119;SDS011;73001;51.784;4.660;2024-02-21T11:34:23;12.26;;;12.26;;
83119;SDS011;73001;51.784;4.660;2024-02-21T11:36:49;12.02;;;12.02;;
83119;SDS011;73001;51.784;4.660;2024-02-21T11:41:47;11.70;;;11.70;;
83119;SDS011;73001;51.784;4.660;2024-02-21T11:44:23;11.71;;;11.71;;
83119;SDS011;73001;51.784;4.660;2024-02-21T11:46:49;11.96;;;11.96;;
83119;SDS011;73001;51.784;4.660;2024-02-21T11:49:14;11.51;;;11.51;;
83119;SDS011;73001;51.784;4.660;2024-02-21T11:51:40;11.03;;;11.03;;
83119;SDS011;73001;51.784;4.660;2024-02-21T11:54:05;10.70;;;10.70;;
83119;SDS011;73001;51.784;4.660;2024-02-21T11:56:31;10.68;;;10.68;;
83119;SDS011;73001;51.784;4.660;2024-02-21T11:58:58;10.92;;;10.92;;
83119;SDS011;73001;51.784;4.660;2024-02-21T12:01:24;10.66;;;10.66;;
83119;SDS011;73001;51.784;4.660;2024-02-21T12:03:49;10.11;;;10.11;;
83119;SDS011;73001;51.784;4.660;2024-02-21T12:06:16;9.70;;;9.70;;
83119;SDS011;73001;51.784;4.660;2024-02-21T12:08:45;9.47;;;9.47;;
83119;SDS011;73001;51.784;4.660;2024-02-21T12:11:21;9.02;;;9.02;;
83119;SDS011;73001;51.784;4.660;2024-02-21T12:13:58;9.29;;;9.29;;
83119;SDS011;73001;51.784;4.660;2024-02-21T12:16:28;9.16;;;9.16;;
83119;SDS011;73001;51.784;4.660;2024-02-21T12:18:55;8.95;;;8.95;;
83119;SDS011;73001;51.784;4.660;2024-02-21T12:21:31;8.90;;;8.90;;
83119;SDS011;73001;51.784;4.660;2024-02-21T12:26:56;8.94;;;8.94;;
83119;SDS011;73001;51.784;4.660;2024-02-21T12:29:23;9.44;;;9.44;;
83119;SDS011;73001;51.784;4.660;2024-02-21T12:31:49;11.04;;;11.04;;
83119;SDS011;73001;51.784;4.660;2024-02-21T12:34:15;8.96;;;8.96;;
83119;SDS011;73001;51.784;4.660;2024-02-21T12:36:41;8.80;;;8.80;;
83119;SDS011;73001;51.784;4.660;2024-02-21T12:39:09;8.76;;;8.76;;
83119;SDS011;73001;51.784;4.660;2024-02-21T12:41:38;9.26;;;9.26;;
83119;SDS011;73001;51.784;4.660;2024-02-21T12:44:05;9.12;;;9.12;;
83119;SDS011;73001;51.784;4.660;2024-02-21T12:46:32;9.78;;;9.78;;
83119;SDS011;73001;51.784;4.660;2024-02-21T12:49:01;9.76;;;9.76;;
83119;SDS011;73001;51.784;4.660;2024-02-21T12:51:28;9.55;;;9.55;;
83119;SDS011;73001;51.784;4.660;2024-02-21T12:53:54;8.91;;;8.91;;
83119;SDS011;73001;51.784;4.660;2024-02-21T12:56:20;8.72;;;8.72;;
83119;SDS011;73001;51.784;4.660;2024-02-21T12:58:46;8.98;;;8.98;;
83119;SDS011;73001;51.784;4.660;2024-02-21T13:01:11;8.86;;;8.86;;
83119;SDS011;73001;51.784;4.660;2024-02-21T13:03:37;9.27;;;9.27;;
83119;SDS011;73001;51.784;4.660;2024-02-21T13:06:03;9.58;;;9.58;;
83119;SDS011;73001;51.784;4.660;2024-02-21T13:08:29;8.83;;;8.83;;
83119;SDS011;73001;51.784;4.660;2024-02-21T13:10:54;8.22;;;8.22;;
83119;SDS011;73001;51.784;4.660;2024-02-21T13:13:20;7.95;;;7.95;;
83119;SDS011;73001;51.784;4.660;2024-02-21T13:15:46;7.86;;;7.86;;
83119;SDS011;73001;51.784;4.660;2024-02-21T13:18:11;7.93;;;7.93;;
83119;SDS011;73001;51.784;4.660;2024-02-21T13:20:36;7.75;;;7.75;;
83119;SDS011;73001;51.784;4.660;2024-02-21T13:23:02;7.92;;;7.92;;
83119;SDS011;73001;51.784;4.660;2024-02-21T13:25:28;7.43;;;7.43;;
83119;SDS011;73001;51.784;4.660;2024-02-21T13:27:54;7.17;;;7.17;;
83119;SDS011;73001;51.784;4.660;2024-02-21T13:30:20;6.74;;;6.74;;
83119;SDS011;73001;51.784;4.660;2024-02-21T13:32:46;6.66;;;6.66;;
83119;SDS011;73001;51.784;4.660;2024-02-21T13:35:11;7.08;;;7.08;;
83119;SDS011;73001;51.784;4.660;2024-02-21T13:37:38;6.71;;;6.71;;
83119;SDS011;73001;51.784;4.660;2024-02-21T13:40:04;6.76;;;6.76;;
83119;SDS011;73001;51.784;4.660;2024-02-21T13:42:30;7.04;;;7.04;;
83119;SDS011;73001;51.784;4.660;2024-02-21T13:44:55;6.67;;;6.67;;
83119;SDS011;73001;51.784;4.660;2024-02-21T13:47:21;6.84;;;6.84;;
83119;SDS011;73001;51.784;4.660;2024-02-21T13:49:46;6.94;;;6.94;;
83119;SDS011;73001;51.784;4.660;2024-02-21T13:52:12;6.82;;;6.82;;
83119;SDS011;73001;51.784;4.660;2024-02-21T13:54:38;6.92;;;6.92;;
83119;SDS011;73001;51.784;4.660;2024-02-21T13:57:04;6.81;;;6.81;;
83119;SDS011;73001;51.784;4.660;2024-02-21T13:59:29;7.08;;;7.08;;
83119;SDS011;73001;51.784;4.660;2024-02-21T14:01:55;7.45;;;7.45;;
83119;SDS011;73001;51.784;4.660;2024-02-21T14:04:21;7.74;;;7.74;;
83119;SDS011;73001;51.784;4.660;2024-02-21T14:06:46;7.92;;;7.92;;
83119;SDS011;73001;51.784;4.660;2024-02-21T14:09:12;9.55;;;9.55;;
83119;SDS011;73001;51.784;4.660;2024-02-21T14:11:38;8.02;;;8.02;;
83119;SDS011;73001;51.784;4.660;2024-02-21T14:14:05;8.00;;;8.00;;
83119;SDS011;73001;51.784;4.660;2024-02-21T14:16:31;7.96;;;7.96;;
83119;SDS011;73001;51.784;4.660;2024-02-21T14:18:57;8.03;;;8.03;;
83119;SDS011;73001;51.784;4.660;2024-02-21T14:21:22;8.30;;;8.30;;
83119;SDS011;73001;51.784;4.660;2024-02-21T14:23:47;8.51;;;8.51;;
83119;SDS011;73001;51.784;4.660;2024-02-21T14:26:13;8.70;;;8.70;;
83119;SDS011;73001;51.784;4.660;2024-02-21T14:28:39;8.34;;;8.34;;
83119;SDS011;73001;51.784;4.660;2024-02-21T14:31:05;8.68;;;8.68;;
83119;SDS011;73001;51.784;4.660;2024-02-21T14:33:34;8.19;;;8.19;;
83119;SDS011;73001;51.784;4.660;2024-02-21T14:36:01;8.11;;;8.11;;
83119;SDS011;73001;51.784;4.660;2024-02-21T14:38:27;7.86;;;7.86;;
83119;SDS011;73001;51.784;4.660;2024-02-21T14:40:53;7.56;;;7.56;;